Time;durP1;ratioP1;P1;durP2;ratioP2;P2;SDS_P1;SDS_P2;PMS_P1;PMS_P2;Temp;Humidity;BMP_temperature;BMP_pressure;BME280_temperature;BME280_humidity;BME280_pressure;Samples;Min_cycle;Max_cycle;Signal;HPM_P1;HPM_P2
2022/07/14 00:02:01;;;;;;;2.80;1.93;;;24.00;63.30;;;;;;5054505;28;20448;-55
2022/07/14 00:04:28;;;;;;;6.07;2.40;;;24.00;63.70;;;;;;5054532;28;20449;-55
2022/07/14 00:06:57;;;;;;;2.30;2.10;;;24.00;64.00;;;;;;5054246;28;20464;-55
2022/07/14 00:09:24;;;;;;;3.37;2.20;;;24.00;64.40;;;;;;5054782;28;20449;-55
2022/07/14 00:11:51;;;;;;;5.73;2.07;;;24.00;63.70;;;;;;5054403;28;20480;-55
2022/07/14 00:14:18;;;;;;;1.93;1.80;;;23.90;64.80;;;;;;5054321;28;20453;-55
2022/07/14 00:16:46;;;;;;;6.17;2.80;;;23.90;64.20;;;;;;5053430;28;20476;-55
2022/07/14 00:19:13;;;;;;;3.50;2.47;;;23.90;64.20;;;;;;5053804;28;20480;-55
2022/07/14 00:21:40;;;;;;;1.90;1.80;;;23.80;65.00;;;;;;5053912;28;20456;-55
2022/07/14 00:24:11;;;;;;;2.43;2.23;;;23.70;65.10;;;;;;5054441;28;20461;-55
2022/07/14 00:26:39;;;;;;;4.30;2.27;;;23.60;65.40;;;;;;5054267;28;20879;-55
2022/07/14 00:29:06;;;;;;;2.80;2.60;;;23.70;66.40;;;;;;5054143;28;20805;-55
2022/07/14 00:31:33;;;;;;;2.57;2.37;;;23.50;65.30;;;;;;5053888;28;20469;-55
2022/07/14 00:34:01;;;;;;;2.27;1.83;;;23.50;66.00;;;;;;5053918;28;20498;-55
2022/07/14 00:36:28;;;;;;;3.10;2.10;;;23.60;67.70;;;;;;5053665;28;20527;-55
2022/07/14 00:38:56;;;;;;;2.63;2.27;;;23.50;67.00;;;;;;5053689;28;21018;-55
2022/07/14 00:41:24;;;;;;;2.30;2.10;;;23.50;66.70;;;;;;5053261;28;20485;-55
2022/07/14 00:43:52;;;;;;;3.10;2.20;;;23.50;67.10;;;;;;5053527;28;20936;-55
2022/07/14 00:46:19;;;;;;;8.30;2.30;;;23.40;67.60;;;;;;5053679;28;20456;-55
2022/07/14 00:48:46;;;;;;;2.70;2.33;;;23.40;68.40;;;;;;5053373;28;20446;-55
2022/07/14 00:51:13;;;;;;;3.60;2.50;;;23.40;68.20;;;;;;5053529;28;20469;-55
2022/07/14 00:53:40;;;;;;;3.33;2.60;;;23.40;68.20;;;;;;5053851;28;20453;-55
2022/07/14 00:56:08;;;;;;;3.87;2.47;;;23.40;68.30;;;;;;5053396;28;20937;-55
2022/07/14 00:58:36;;;;;;;2.83;2.27;;;23.30;68.60;;;;;;5053416;28;20484;-55
2022/07/14 01:01:03;;;;;;;3.17;2.47;;;23.30;69.10;;;;;;5053051;28;20484;-55
2022/07/14 01:03:31;;;;;;;4.40;2.70;;;23.20;71.50;;;;;;5053614;28;20446;-55
2022/07/14 01:06:00;;;;;;;4.90;3.07;;;23.20;72.70;;;;;;5053562;28;20468;-55
2022/07/14 01:08:27;;;;;;;4.50;2.53;;;23.10;73.00;;;;;;5053135;28;20850;-55
2022/07/14 01:10:54;;;;;;;4.00;2.70;;;23.00;72.10;;;;;;5053592;28;20484;-55
2022/07/14 01:13:21;;;;;;;3.27;2.70;;;22.90;72.30;;;;;;5053081;28;20499;-55
2022/07/14 01:15:50;;;;;;;3.97;2.93;;;22.90;72.00;;;;;;5053328;28;20453;-55
2022/07/14 01:18:17;;;;;;;3.00;2.53;;;22.80;72.60;;;;;;5053014;28;20477;-54
2022/07/14 01:20:44;;;;;;;5.23;3.30;;;22.70;73.80;;;;;;5053292;28;20465;-55
2022/07/14 01:23:12;;;;;;;3.03;2.73;;;22.60;74.60;;;;;;5052858;28;20445;-55
2022/07/14 01:25:40;;;;;;;3.00;2.73;;;22.60;75.40;;;;;;5053318;28;20449;-55
2022/07/14 01:28:07;;;;;;;3.77;3.20;;;22.50;75.70;;;;;;5052824;28;20804;-55
2022/07/14 01:30:34;;;;;;;4.73;2.70;;;22.40;75.90;;;;;;5053111;28;20492;-55
2022/07/14 01:33:01;;;;;;;3.83;2.93;;;22.40;75.80;;;;;;5053117;28;20453;-55
2022/07/14 01:35:28;;;;;;;2.63;2.43;;;22.40;76.70;;;;;;5053064;28;20457;-55
2022/07/14 01:37:55;;;;;;;9.27;2.60;;;22.40;76.80;;;;;;5052720;28;20485;-55
2022/07/14 01:40:24;;;;;;;5.03;2.73;;;22.40;75.50;;;;;;5052782;28;20492;-55
2022/07/14 01:42:51;;;;;;;4.40;2.57;;;22.30;75.10;;;;;;5052748;28;20445;-55
2022/07/14 01:45:18;;;;;;;2.60;2.40;;;22.10;75.40;;;;;;5052630;28;20928;-55
2022/07/14 01:47:45;;;;;;;3.83;2.23;;;22.00;76.60;;;;;;5053142;28;20441;-55
2022/07/14 01:50:13;;;;;;;3.00;2.70;;;22.00;77.40;;;;;;5052596;28;21053;-55
2022/07/14 01:52:40;;;;;;;3.90;2.80;;;21.90;78.00;;;;;;5052896;28;20451;-55
2022/07/14 01:55:08;;;;;;;2.23;2.03;;;21.80;76.40;;;;;;5052691;28;20971;-55
2022/07/14 01:57:37;;;;;;;6.23;2.90;;;21.70;77.30;;;;;;5052924;28;20481;-55
2022/07/14 02:00:05;;;;;;;3.83;2.70;;;21.70;77.70;;;;;;5052794;28;20473;-55
2022/07/14 02:02:32;;;;;;;2.33;2.13;;;21.60;78.10;;;;;;5052738;28;20449;-55
2022/07/14 02:04:59;;;;;;;3.07;2.33;;;21.60;78.70;;;;;;5052595;28;20434;-55
2022/07/14 02:07:26;;;;;;;2.77;2.50;;;21.40;78.50;;;;;;5052624;28;20429;-55
2022/07/14 02:12:39;;;;;;;2.73;2.40;;;21.30;79.50;;;;;;5052547;28;20459;-55
2022/07/14 02:15:07;;;;;;;2.70;2.40;;;21.30;80.50;;;;;;5052545;28;20955;-55
2022/07/14 02:17:34;;;;;;;3.30;2.43;;;21.40;80.60;;;;;;5052540;28;20460;-55
2022/07/14 02:20:01;;;;;;;2.90;2.60;;;21.40;81.00;;;;;;5052539;28;20811;-54
2022/07/14 02:22:28;;;;;;;2.60;2.40;;;21.40;81.10;;;;;;5052477;28;20445;-54
2022/07/14 02:24:55;;;;;;;4.67;2.50;;;21.30;82.10;;;;;;5052277;28;20940;-55
2022/07/14 02:27:23;;;;;;;6.27;2.60;;;21.10;82.10;;;;;;5052587;28;20453;-54
2022/07/14 02:29:51;;;;;;;3.00;2.70;;;20.90;82.80;;;;;;5052534;28;20461;-54
2022/07/14 02:32:18;;;;;;;5.47;2.80;;;20.80;83.20;;;;;;5052517;28;20453;-54
2022/07/14 02:34:45;;;;;;;5.63;2.63;;;20.80;83.50;;;;;;5052177;28;21002;-55
2022/07/14 02:37:14;;;;;;;8.50;2.80;;;20.90;83.90;;;;;;5052610;28;20452;-55
2022/07/14 02:39:41;;;;;;;6.60;2.40;;;20.90;85.00;;;;;;5052038;28;20489;-55
2022/07/14 02:42:08;;;;;;;5.50;2.80;;;20.90;85.20;;;;;;5056067;28;20430;-55
2022/07/14 02:44:35;;;;;;;5.30;3.90;;;20.90;84.90;;;;;;5056175;28;20476;-55
2022/07/14 02:47:04;;;;;;;3.73;2.47;;;20.90;85.10;;;;;;5056255;28;20582;-55
2022/07/14 02:49:31;;;;;;;3.70;3.10;;;20.90;86.30;;;;;;5055934;28;20465;-55
2022/07/14 02:51:58;;;;;;;5.63;3.57;;;20.90;85.70;;;;;;5056027;28;20445;-55
2022/07/14 02:54:25;;;;;;;3.40;2.90;;;20.70;85.50;;;;;;5055666;28;20456;-55
2022/07/14 02:56:52;;;;;;;3.40;3.10;;;20.70;86.30;;;;;;5055609;28;20436;-55
2022/07/14 02:59:19;;;;;;;3.77;3.00;;;20.70;86.80;;;;;;5055271;28;20485;-54
2022/07/14 03:01:46;;;;;;;4.27;3.17;;;20.70;89.10;;;;;;5055530;28;20958;-54
2022/07/14 03:04:15;;;;;;;3.17;2.87;;;20.80;88.90;;;;;;5055765;28;20453;-54
2022/07/14 03:06:42;;;;;;;5.20;2.57;;;20.80;89.20;;;;;;5055866;28;20443;-54
2022/07/14 03:09:09;;;;;;;3.50;2.80;;;20.70;89.20;;;;;;5055377;28;20438;-55
2022/07/14 03:11:36;;;;;;;2.90;2.60;;;20.70;89.40;;;;;;5055253;28;20457;-54
2022/07/14 03:14:03;;;;;;;3.90;3.50;;;20.70;90.50;;;;;;5055502;28;20817;-54
2022/07/14 03:16:31;;;;;;;3.43;3.13;;;20.70;90.40;;;;;;5055272;28;20453;-54
2022/07/14 03:18:58;;;;;;;4.60;3.90;;;20.60;90.70;;;;;;5055334;28;20855;-54
2022/07/14 03:21:27;;;;;;;3.27;2.97;;;20.60;90.70;;;;;;5055076;28;20556;-55
2022/07/14 03:23:54;;;;;;;3.23;2.93;;;20.50;90.90;;;;;;5055496;28;20445;-55
2022/07/14 03:26:21;;;;;;;4.93;3.50;;;20.40;91.60;;;;;;5055070;28;20429;-55
2022/07/14 03:28:48;;;;;;;2.80;2.60;;;20.30;92.00;;;;;;5055224;28;20528;-54
2022/07/14 03:31:15;;;;;;;4.67;3.03;;;20.40;92.40;;;;;;5055133;28;20492;-55
2022/07/14 03:33:43;;;;;;;3.47;3.17;;;20.40;92.60;;;;;;5054825;28;20454;-55
2022/07/14 03:36:10;;;;;;;3.43;3.13;;;20.40;93.00;;;;;;5054997;28;20463;-55
2022/07/14 03:38:39;;;;;;;4.50;3.37;;;20.40;92.90;;;;;;5054745;28;21058;-55
2022/07/14 03:41:06;;;;;;;4.60;2.70;;;20.40;93.30;;;;;;5054544;28;20492;-55
2022/07/14 03:43:34;;;;;;;3.37;3.07;;;20.30;93.30;;;;;;5054611;28;20456;-55
2022/07/14 03:46:02;;;;;;;4.07;2.83;;;20.30;93.90;;;;;;5054820;28;20426;-55
2022/07/14 03:48:29;;;;;;;3.80;3.30;;;20.30;94.20;;;;;;5054653;28;20861;-55
2022/07/14 03:50:56;;;;;;;4.63;3.30;;;20.30;94.00;;;;;;5054329;28;20995;-55
2022/07/14 03:53:23;;;;;;;4.37;2.60;;;20.30;94.30;;;;;;5053858;28;20533;-55
2022/07/14 03:55:52;;;;;;;5.83;2.80;;;20.30;94.00;;;;;;5054539;28;20488;-55
2022/07/14 03:58:19;;;;;;;5.17;3.00;;;20.30;94.30;;;;;;5054580;28;20527;-55
2022/07/14 04:00:47;;;;;;;3.90;3.00;;;20.30;93.90;;;;;;5054330;28;20472;-55
2022/07/14 04:03:14;;;;;;;8.20;3.10;;;20.30;93.90;;;;;;5054457;28;20880;-55
2022/07/14 04:05:41;;;;;;;3.47;3.17;;;20.30;94.20;;;;;;5054555;28;20813;-55
2022/07/14 04:08:09;;;;;;;3.27;2.97;;;20.30;93.80;;;;;;5054431;28;20544;-55
2022/07/14 04:10:36;;;;;;;4.37;3.00;;;20.40;93.80;;;;;;5054203;28;20468;-55
2022/07/14 04:13:05;;;;;;;2.87;2.67;;;20.30;94.30;;;;;;5054032;28;21031;-55
2022/07/14 04:15:32;;;;;;;3.20;2.90;;;20.20;94.70;;;;;;5053948;28;20445;-54
2022/07/14 04:18:00;;;;;;;3.10;2.80;;;20.00;95.00;;;;;;5054111;28;20532;-54
2022/07/14 04:20:27;;;;;;;3.77;2.87;;;20.00;95.50;;;;;;5053657;28;20924;-55
2022/07/14 04:22:54;;;;;;;3.80;2.70;;;20.00;95.60;;;;;;5054098;28;20510;-55
2022/07/14 04:25:21;;;;;;;4.70;3.23;;;20.00;95.40;;;;;;5053957;28;20994;-55
2022/07/14 04:27:49;;;;;;;3.13;2.77;;;20.10;95.80;;;;;;5054082;28;20532;-55
2022/07/14 04:30:17;;;;;;;4.60;2.60;;;20.20;95.20;;;;;;5053944;28;20556;-54
2022/07/14 04:32:44;;;;;;;5.33;2.80;;;20.20;94.60;;;;;;5054040;28;20485;-54
2022/07/14 04:35:13;;;;;;;3.00;2.80;;;20.10;94.40;;;;;;5053831;28;20928;-54
2022/07/14 04:37:40;;;;;;;3.97;2.60;;;20.10;94.50;;;;;;5053578;28;20436;-54
2022/07/14 04:40:08;;;;;;;5.73;2.90;;;20.10;94.60;;;;;;5053271;28;20489;-55
2022/07/14 04:42:36;;;;;;;3.23;2.47;;;20.10;94.70;;;;;;5053759;28;20441;-55
2022/07/14 04:45:03;;;;;;;3.30;2.97;;;20.10;94.70;;;;;;5053462;28;20755;-55
2022/07/14 04:47:32;;;;;;;2.70;2.50;;;20.20;95.20;;;;;;5053458;28;20457;-55
2022/07/14 04:52:48;;;;;;;3.30;2.20;;;20.30;95.40;;;;;;5053623;28;20425;-54
2022/07/14 04:55:15;;;;;;;2.83;2.63;;;20.40;95.50;;;;;;5053596;28;20453;-55
2022/07/14 04:57:42;;;;;;;4.23;2.60;;;20.40;95.30;;;;;;5053443;28;20862;-55
2022/07/14 05:00:11;;;;;;;2.70;2.47;;;20.30;95.40;;;;;;5053178;28;20477;-55
2022/07/14 05:02:40;;;;;;;3.20;2.90;;;20.40;96.00;;;;;;5053076;28;20453;-55
2022/07/14 05:05:09;;;;;;;3.57;2.73;;;20.40;96.40;;;;;;5052966;28;20461;-54
2022/07/14 05:07:36;;;;;;;3.90;2.83;;;20.40;95.40;;;;;;5053389;28;20422;-54
2022/07/14 05:10:05;;;;;;;4.30;2.87;;;20.50;95.10;;;;;;5053037;28;20465;-54
2022/07/14 05:12:32;;;;;;;3.83;2.60;;;20.60;94.70;;;;;;5053268;28;20449;-55
2022/07/14 05:14:59;;;;;;;3.53;3.23;;;20.70;96.10;;;;;;5053157;28;20544;-55
2022/07/14 05:17:26;;;;;;;4.10;2.63;;;20.70;96.40;;;;;;5053303;28;20544;-55
2022/07/14 05:19:55;;;;;;;2.77;2.57;;;20.70;96.70;;;;;;5052969;28;20493;-55
2022/07/14 05:22:22;;;;;;;6.57;3.00;;;20.80;97.00;;;;;;5052813;28;20441;-55
2022/07/14 05:24:50;;;;;;;5.40;3.60;;;20.80;96.40;;;;;;5052785;28;20450;-55
2022/07/14 05:27:17;;;;;;;9.83;3.63;;;20.80;96.90;;;;;;5052710;28;20552;-55
2022/07/14 05:29:44;;;;;;;3.10;2.90;;;20.80;95.90;;;;;;5052975;28;20507;-55
2022/07/14 05:32:15;;;;;;;4.43;3.23;;;20.90;97.10;;;;;;5052653;28;20533;-55
2022/07/14 05:34:42;;;;;;;3.50;3.20;;;21.00;95.60;;;;;;5052558;28;20890;-55
2022/07/14 05:37:11;;;;;;;4.80;3.67;;;21.10;96.40;;;;;;5053142;28;20484;-55
2022/07/14 05:39:38;;;;;;;3.50;3.20;;;21.20;96.30;;;;;;5052579;28;20564;-55
2022/07/14 05:42:06;;;;;;;10.43;3.87;;;21.30;95.70;;;;;;5052917;28;20444;-55
2022/07/14 05:44:34;;;;;;;3.90;3.50;;;21.40;95.90;;;;;;5052450;28;20940;-55
2022/07/14 05:47:01;;;;;;;4.70;3.30;;;21.50;96.90;;;;;;5052751;28;20945;-55
2022/07/14 05:49:29;;;;;;;4.43;3.57;;;;;;;;;;5052858;28;20449;-55
2022/07/14 05:51:56;;;;;;;4.97;3.10;;;21.70;97.10;;;;;;5052595;28;20948;-55
2022/07/14 05:54:25;;;;;;;4.30;3.90;;;21.70;97.60;;;;;;5052745;28;20484;-55
2022/07/14 05:56:52;;;;;;;8.73;3.57;;;;;;;;;;5052888;28;20449;-55
2022/07/14 05:59:19;;;;;;;3.70;3.00;;;21.80;96.30;;;;;;5052402;28;20506;-55
2022/07/14 06:01:47;;;;;;;7.13;3.10;;;21.90;96.20;;;;;;5052456;28;20536;-54
2022/07/14 06:04:14;;;;;;;4.50;3.80;;;21.90;95.70;;;;;;5052501;28;20572;-55
2022/07/14 06:06:45;;;;;;;3.17;2.87;;;21.90;94.40;;;;;;5052805;28;20940;-55
2022/07/14 06:09:13;;;;;;;4.03;3.40;;;22.10;94.70;;;;;;5052754;28;20432;-55
2022/07/14 06:11:43;;;;;;;6.03;3.30;;;22.20;94.70;;;;;;5052612;28;20870;-55
2022/07/14 06:14:11;;;;;;;13.30;3.87;;;22.40;95.10;;;;;;5052666;28;20962;-55
2022/07/14 06:16:39;;;;;;;9.43;3.20;;;22.60;94.50;;;;;;5055887;28;20464;-55
2022/07/14 06:19:07;;;;;;;6.13;4.23;;;22.70;93.70;;;;;;5056595;28;20569;-55
2022/07/14 06:21:34;;;;;;;6.53;3.40;;;22.90;93.40;;;;;;5056639;28;20475;-55
2022/07/14 06:24:01;;;;;;;9.47;3.00;;;23.00;93.70;;;;;;5056116;28;20453;-55
2022/07/14 06:26:28;;;;;;;4.20;3.17;;;23.10;93.80;;;;;;5056068;28;20528;-55
2022/07/14 06:28:57;;;;;;;7.10;3.47;;;23.30;93.70;;;;;;5056188;28;20507;-55
2022/07/14 06:31:24;;;;;;;5.50;3.80;;;23.40;92.70;;;;;;5056171;28;20478;-55
2022/07/14 06:33:51;;;;;;;5.00;2.90;;;23.50;92.80;;;;;;5055684;28;20445;-55
2022/07/14 06:36:18;;;;;;;3.63;3.10;;;23.60;91.70;;;;;;5056255;28;20465;-55
2022/07/14 06:38:46;;;;;;;6.20;3.60;;;23.70;91.70;;;;;;5056046;28;20535;-55
2022/07/14 06:41:13;;;;;;;3.47;3.17;;;23.80;91.80;;;;;;5055706;28;20492;-55
2022/07/14 06:43:40;;;;;;;8.43;2.93;;;23.80;92.40;;;;;;5055936;28;20507;-55
2022/07/14 06:46:13;;;;;;;4.30;3.37;;;23.90;91.30;;;;;;5055851;28;20449;-56
2022/07/14 06:48:40;;;;;;;4.00;3.70;;;24.00;90.30;;;;;;5056031;28;20453;-55
2022/07/14 06:51:08;;;;;;;3.97;3.30;;;24.20;90.40;;;;;;5056035;28;20488;-55
2022/07/14 06:53:35;;;;;;;3.50;2.70;;;24.20;88.50;;;;;;5055518;28;20540;-55
2022/07/14 06:56:02;;;;;;;5.90;3.03;;;24.30;89.40;;;;;;5055603;28;20579;-55
2022/07/14 06:58:30;;;;;;;5.77;3.23;;;24.50;88.80;;;;;;5055733;28;20440;-55
2022/07/14 07:00:57;;;;;;;3.87;2.60;;;24.60;88.70;;;;;;5055043;28;20489;-55
2022/07/14 07:03:26;;;;;;;4.30;3.13;;;24.60;88.40;;;;;;5055390;28;20528;-55
2022/07/14 07:08:38;;;;;;;3.50;3.00;;;25.00;87.60;;;;;;5055218;28;20429;-55
2022/07/14 07:11:05;;;;;;;4.50;2.80;;;25.20;88.70;;;;;;5055431;28;20493;-55
2022/07/14 07:13:32;;;;;;;3.60;2.90;;;25.30;87.50;;;;;;5055419;28;20565;-55
2022/07/14 07:16:04;;;;;;;4.40;3.10;;;25.50;86.50;;;;;;5055194;28;20971;-54
2022/07/14 07:18:32;;;;;;;4.63;2.77;;;25.90;86.70;;;;;;5055634;28;20436;-55
2022/07/14 07:21:00;;;;;;;5.63;2.90;;;26.30;84.50;;;;;;5055264;28;20917;-55
2022/07/14 07:23:27;;;;;;;4.93;3.10;;;27.00;85.70;;;;;;5055055;28;20935;-55
2022/07/14 07:25:54;;;;;;;3.70;2.90;;;27.70;87.00;;;;;;5054802;28;20456;-55
2022/07/14 07:28:22;;;;;;;5.20;3.20;;;28.20;86.50;;;;;;5054864;28;20531;-56
2022/07/14 07:30:49;;;;;;;5.77;2.83;;;;;;;;;;5054758;28;20465;-55
2022/07/14 07:33:16;;;;;;;4.60;2.70;;;28.30;85.10;;;;;;5054808;28;20548;-56
2022/07/14 07:35:45;;;;;;;3.70;2.70;;;28.10;81.90;;;;;;5054753;28;20449;-56
2022/07/14 07:38:13;;;;;;;6.20;3.30;;;28.30;83.50;;;;;;5054992;28;20453;-54
2022/07/14 07:40:40;;;;;;;8.30;3.73;;;28.50;84.50;;;;;;5054673;28;20997;-54
2022/07/14 07:43:07;;;;;;;7.70;3.20;;;28.70;82.00;;;;;;5054539;28;20879;-55
2022/07/14 07:45:34;;;;;;;3.50;2.57;;;29.00;79.70;;;;;;5054898;28;20528;-55
2022/07/14 07:48:03;;;;;;;2.83;2.53;;;29.00;77.40;;;;;;5054576;28;20449;-54
2022/07/14 07:50:30;;;;;;;4.27;2.87;;;;;;;;;;5054458;28;20469;-55
2022/07/14 07:52:59;;;;;;;4.70;2.70;;;29.60;77.60;;;;;;5054388;28;20445;-54
2022/07/14 07:55:26;;;;;;;7.43;3.23;;;30.20;76.40;;;;;;5054590;28;20524;-54
2022/07/14 07:57:54;;;;;;;5.20;2.83;;;30.80;75.80;;;;;;5054441;28;20536;-55
2022/07/14 08:00:21;;;;;;;3.77;2.80;;;31.30;73.90;;;;;;5054112;28;20531;-55
2022/07/14 08:02:52;;;;;;;4.13;2.80;;;31.70;71.50;;;;;;5054247;28;20543;-55
2022/07/14 08:05:21;;;;;;;2.83;2.37;;;31.90;67.10;;;;;;5054557;28;20530;-55
2022/07/14 08:07:49;;;;;;;6.47;3.17;;;31.90;64.90;;;;;;5054139;28;20456;-55
2022/07/14 08:10:17;;;;;;;4.30;2.80;;;32.40;64.50;;;;;;5054240;28;20466;-55
2022/07/14 08:12:45;;;;;;;9.20;4.53;;;32.80;60.40;;;;;;5054467;28;20445;-55
2022/07/14 08:15:13;;;;;;;6.17;2.80;;;33.20;60.60;;;;;;5054333;28;20913;-55
2022/07/14 08:17:41;;;;;;;4.07;2.63;;;33.30;59.60;;;;;;5054254;28;20455;-55
2022/07/14 08:20:10;;;;;;;3.10;2.80;;;33.80;57.90;;;;;;5053886;28;20484;-55
2022/07/14 08:22:38;;;;;;;4.87;2.80;;;33.80;57.80;;;;;;5054185;28;20574;-56
2022/07/14 08:25:07;;;;;;;3.10;2.70;;;33.50;56.60;;;;;;5053553;28;20982;-56
2022/07/14 08:27:36;;;;;;;5.50;2.80;;;33.20;57.20;;;;;;5053730;28;20479;-55
2022/07/14 08:30:05;;;;;;;3.13;2.70;;;33.00;56.70;;;;;;5054162;28;20469;-55
2022/07/14 08:32:40;;;;;;;4.87;2.73;;;33.20;56.40;;;;;;5053660;28;20801;-56
2022/07/14 08:35:09;;;;;;;6.37;3.33;;;33.90;55.40;;;;;;5053921;28;20491;-56
2022/07/14 08:37:37;;;;;;;9.63;3.53;;;33.90;58.20;;;;;;5053547;28;20453;-55
2022/07/14 08:40:07;;;;;;;4.87;3.20;;;34.10;58.50;;;;;;5053429;28;20516;-57
2022/07/14 08:42:36;;;;;;;2.20;2.00;;;33.80;56.10;;;;;;5053494;28;20525;-55
2022/07/14 08:45:08;;;;;;;4.93;3.07;;;34.20;52.90;;;;;;5053690;28;20472;-55
2022/07/14 08:47:36;;;;;;;6.73;2.07;;;34.20;51.90;;;;;;5053836;28;20429;-55
2022/07/14 08:50:04;;;;;;;2.10;1.90;;;34.40;51.20;;;;;;5053658;28;20887;-55
2022/07/14 08:52:32;;;;;;;6.03;2.20;;;34.70;51.00;;;;;;5053533;28;20779;-56
2022/07/14 08:55:00;;;;;;;3.13;2.20;;;34.60;50.90;;;;;;5053534;28;20824;-58
2022/07/14 08:57:27;;;;;;;4.90;2.57;;;34.40;50.00;;;;;;5053326;28;20448;-55
2022/07/14 08:59:57;;;;;;;3.33;2.33;;;35.20;50.80;;;;;;5053392;28;20603;-56
2022/07/14 09:02:25;;;;;;;5.33;2.10;;;35.90;48.70;;;;;;5053441;28;20912;-55
2022/07/14 09:04:52;;;;;;;2.90;2.60;;;35.60;47.90;;;;;;5053418;28;20488;-55
2022/07/14 09:07:31;;;;;;;2.80;1.80;;;35.30;47.80;;;;;;5053110;28;20525;-56
2022/07/14 09:10:04;;;;;;;5.73;2.30;;;36.00;47.90;;;;;;5053389;28;20465;-56
2022/07/14 09:12:33;;;;;;;5.70;2.00;;;36.40;47.30;;;;;;5053406;28;20448;-56
2022/07/14 09:17:54;;;;;;;2.60;2.17;;;36.80;46.20;;;;;;5053364;28;20459;-56
2022/07/14 09:20:22;;;;;;;2.50;2.30;;;37.10;46.00;;;;;;5052981;28;20978;-56
2022/07/14 09:22:56;;;;;;;2.03;1.87;;;37.00;45.40;;;;;;5053013;28;20950;-56
2022/07/14 09:25:25;;;;;;;2.07;1.83;;;37.40;44.60;;;;;;5053077;28;20182;-55
2022/07/14 09:27:53;;;;;;;6.07;1.80;;;37.40;42.70;;;;;;5053193;28;20784;-56
2022/07/14 09:30:23;;;;;;;2.90;1.90;;;37.40;42.30;;;;;;5052583;28;20469;-56
2022/07/14 09:32:52;;;;;;;1.70;1.60;;;36.60;42.70;;;;;;5052728;28;20460;-56
2022/07/14 09:35:21;;;;;;;2.07;1.93;;;36.80;42.60;;;;;;5052661;28;20582;-55
2022/07/14 09:37:49;;;;;;;3.40;1.80;;;36.60;42.90;;;;;;5052769;28;20539;-55
2022/07/14 09:40:25;;;;;;;2.70;2.10;;;36.50;42.00;;;;;;5052723;28;20488;-55
2022/07/14 09:42:58;;;;;;;5.60;2.90;;;37.30;42.30;;;;;;5052943;28;20457;-55
2022/07/14 09:45:29;;;;;;;2.47;2.27;;;37.40;42.10;;;;;;5052589;28;20449;-56
2022/07/14 09:48:02;;;;;;;4.00;1.80;;;37.70;42.40;;;;;;5052873;28;20975;-55
2022/07/14 09:50:37;;;;;;;2.20;1.90;;;37.60;41.60;;;;;;5054086;28;20955;-55
2022/07/14 09:53:15;;;;;;;2.20;2.00;;;37.70;41.20;;;;;;5056750;28;20475;-55
2022/07/14 09:55:46;;;;;;;2.13;1.90;;;38.00;41.10;;;;;;5056874;28;20515;-55
2022/07/14 09:58:14;;;;;;;2.13;2.00;;;38.20;41.70;;;;;;5057060;28;20428;-61
2022/07/14 10:00:43;;;;;;;2.27;1.90;;;37.60;40.80;;;;;;5056639;28;20583;-56
2022/07/14 10:03:10;;;;;;;2.10;1.90;;;36.70;41.20;;;;;;5056665;28;20464;-56
2022/07/14 10:05:38;;;;;;;3.73;2.13;;;35.30;41.70;;;;;;5056100;28;20454;-56
2022/07/14 10:08:07;;;;;;;2.33;1.97;;;35.00;42.40;;;;;;5056949;28;20532;-56
2022/07/14 10:10:36;;;;;;;2.77;2.50;;;35.40;43.00;;;;;;5056669;28;20472;-57
2022/07/14 10:13:05;;;;;;;3.73;2.20;;;36.00;42.30;;;;;;5056523;28;20484;-57
2022/07/14 10:15:33;;;;;;;3.40;2.03;;;36.60;41.30;;;;;;5056329;28;20437;-57
2022/07/14 10:18:03;;;;;;;4.00;2.53;;;36.60;41.60;;;;;;5056194;28;20535;-57
2022/07/14 10:20:32;;;;;;;2.27;2.10;;;37.00;41.00;;;;;;5055988;28;21000;-57
2022/07/14 10:23:01;;;;;;;4.50;1.90;;;37.40;40.80;;;;;;5056254;28;20483;-56
2022/07/14 10:25:29;;;;;;;2.90;2.10;;;38.20;40.70;;;;;;5056044;28;20480;-57
2022/07/14 10:27:57;;;;;;;2.93;2.13;;;38.50;40.20;;;;;;5056228;28;20303;-56
2022/07/14 10:30:35;;;;;;;2.80;2.10;;;38.30;40.50;;;;;;5056136;28;20467;-57
2022/07/14 10:33:08;;;;;;;2.30;2.10;;;38.70;40.50;;;;;;5056062;28;20930;-57
2022/07/14 10:35:52;;;;;;;2.87;2.37;;;38.40;39.70;;;;;;5056438;28;20480;-57
2022/07/14 10:38:38;;;;;;;2.10;2.00;;;38.60;40.60;;;;;;5056230;28;20676;-57
2022/07/14 10:41:17;;;;;;;2.60;2.10;;;38.50;39.50;;;;;;5055710;28;20234;-57
2022/07/14 10:44:07;;;;;;;3.00;1.80;;;38.90;39.20;;;;;;5055765;28;20533;-57
2022/07/14 10:46:38;;;;;;;2.90;2.00;;;38.80;39.90;;;;;;5055968;28;20301;-57
2022/07/14 10:49:09;;;;;;;4.83;2.13;;;39.20;39.20;;;;;;5055567;28;20221;-57
2022/07/14 10:51:44;;;;;;;4.53;2.23;;;;;;;;;;5056046;28;20546;-57
2022/07/14 10:54:13;;;;;;;2.13;1.93;;;40.20;38.30;;;;;;5055480;28;20236;-58
2022/07/14 10:56:42;;;;;;;3.13;2.40;;;40.70;37.80;;;;;;5055674;28;20238;-57
2022/07/14 10:59:31;;;;;;;2.40;2.20;;;40.10;38.10;;;;;;5055748;28;20210;-57
2022/07/14 11:02:36;;;;;;;2.40;2.10;;;39.30;38.10;;;;;;5054761;28;20618;-57
2022/07/14 11:05:08;;;;;;;3.20;1.83;;;39.20;38.60;;;;;;5053784;28;20542;-57
2022/07/14 11:07:41;;;;;;;2.30;2.10;;;39.20;37.50;;;;;;5055389;28;20190;-57
2022/07/14 11:10:41;;;;;;;2.80;2.10;;;38.70;37.90;;;;;;5055606;28;20225;-57
2022/07/14 11:13:10;;;;;;;4.37;2.00;;;39.80;38.40;;;;;;5051070;28;20206;-57
2022/07/14 11:15:39;;;;;;;4.20;2.10;;;38.80;37.90;;;;;;5055139;28;20209;-57
2022/07/14 11:18:41;;;;;;;3.40;2.53;;;39.10;38.70;;;;;;5055253;28;20202;-57
2022/07/14 11:21:16;;;;;;;2.40;2.20;;;39.00;37.90;;;;;;4993525;28;20235;-57
2022/07/14 11:23:55;;;;;;;4.00;2.37;;;38.50;38.50;;;;;;5046121;28;20943;-57
2022/07/14 11:26:40;;;;;;;9.43;3.33;;;38.90;38.20;;;;;;5055336;28;20194;-57
2022/07/14 11:29:08;;;;;;;2.57;2.37;;;39.40;38.20;;;;;;5054834;28;20206;-57
2022/07/14 11:31:46;;;;;;;2.25;2.08;;;39.60;38.40;;;;;;5055129;28;20268;-57
2022/07/14 11:37:12;;;;;;;2.90;2.13;;;39.80;38.30;;;;;;5055490;28;20197;-56
2022/07/14 11:39:41;;;;;;;2.40;2.20;;;39.70;38.70;;;;;;5054772;28;20218;-57
2022/07/14 11:42:12;;;;;;;2.87;1.80;;;38.90;38.30;;;;;;5054813;28;20987;-57
2022/07/14 11:44:51;;;;;;;7.03;2.20;;;38.70;38.10;;;;;;5054822;28;20524;-57
2022/07/14 11:47:20;;;;;;;5.47;1.97;;;39.10;38.70;;;;;;5054992;28;20186;-57
2022/07/14 11:49:59;;;;;;;2.43;1.97;;;39.30;38.50;;;;;;5054989;28;20254;-56
2022/07/14 11:52:31;;;;;;;2.47;2.20;;;39.60;38.80;;;;;;5054304;28;20193;-56
2022/07/14 11:55:02;;;;;;;3.00;2.20;;;39.20;39.10;;;;;;5054736;28;20183;-56
2022/07/14 11:57:29;;;;;;;3.93;2.30;;;39.00;38.60;;;;;;5054369;28;20193;-56
2022/07/14 12:00:03;;;;;;;4.33;2.27;;;39.00;38.80;;;;;;5054626;28;20226;-57
2022/07/14 12:02:30;;;;;;;5.13;1.90;;;39.30;39.30;;;;;;5054258;28;20708;-58
2022/07/14 12:04:59;;;;;;;3.80;2.27;;;39.30;38.80;;;;;;5054009;28;20673;-57
2022/07/14 12:07:45;;;;;;;3.50;2.57;;;39.20;39.20;;;;;;5054491;28;20559;-57
2022/07/14 12:10:13;;;;;;;6.10;2.30;;;39.30;39.30;;;;;;5054220;28;20759;-57
2022/07/14 12:12:41;;;;;;;2.37;2.17;;;39.20;39.30;;;;;;5053277;28;20194;-57
2022/07/14 12:15:11;;;;;;;4.33;2.20;;;39.20;38.80;;;;;;5053878;28;20206;-57
2022/07/14 12:17:47;;;;;;;3.47;2.03;;;39.50;38.70;;;;;;5054773;28;20474;-57
2022/07/14 12:20:15;;;;;;;3.20;2.20;;;39.70;39.10;;;;;;5054493;28;20518;-57
2022/07/14 12:22:46;;;;;;;4.23;1.90;;;38.40;37.60;;;;;;5054076;28;20512;-57
2022/07/14 12:25:28;;;;;;;2.40;1.70;;;38.30;38.20;;;;;;5054168;28;20451;-57
2022/07/14 12:27:56;;;;;;;2.37;2.17;;;38.70;38.00;;;;;;5053983;28;20887;-57
2022/07/14 12:30:24;;;;;;;2.40;2.20;;;39.20;38.50;;;;;;5053684;28;20974;-57
2022/07/14 12:32:55;;;;;;;3.07;2.30;;;39.00;37.70;;;;;;5053546;28;20456;-56
2022/07/14 12:35:23;;;;;;;4.00;2.20;;;38.80;37.60;;;;;;5054162;28;20437;-57
2022/07/14 12:37:52;;;;;;;3.13;2.13;;;38.80;37.60;;;;;;5053539;28;20469;-57
2022/07/14 12:40:20;;;;;;;2.70;2.00;;;38.60;37.80;;;;;;5052726;28;20487;-57
2022/07/14 12:42:47;;;;;;;4.33;1.93;;;39.10;38.30;;;;;;5053587;28;20480;-57
2022/07/14 12:45:15;;;;;;;5.30;1.87;;;39.30;37.60;;;;;;5053871;28;20234;-57
2022/07/14 12:47:52;;;;;;;2.20;2.00;;;39.40;36.90;;;;;;5053799;28;20242;-57
2022/07/14 12:50:20;;;;;;;1.77;1.67;;;39.00;38.00;;;;;;5053489;28;20305;-57
2022/07/14 12:52:53;;;;;;;2.60;2.00;;;38.00;37.60;;;;;;5053569;28;20449;-57
2022/07/14 12:55:38;;;;;;;2.47;2.10;;;37.30;37.90;;;;;;5053322;28;20445;-57
2022/07/14 12:58:08;;;;;;;2.40;2.20;;;37.00;38.30;;;;;;5053721;28;20820;-56
2022/07/14 13:00:36;;;;;;;4.30;2.17;;;36.60;38.40;;;;;;5053575;28;20664;-56
2022/07/14 13:03:14;;;;;;;1.80;1.70;;;36.60;38.70;;;;;;5053315;28;20572;-56
2022/07/14 13:05:46;;;;;;;2.70;2.10;;;36.50;38.50;;;;;;5053152;28;20499;-56
2022/07/14 13:08:35;;;;;;;2.70;2.20;;;36.00;38.40;;;;;;5052812;28;20522;-56
2022/07/14 13:11:04;;;;;;;4.63;2.10;;;35.50;38.60;;;;;;5053460;28;20583;-55
2022/07/14 13:13:33;;;;;;;3.43;2.30;;;35.20;39.00;;;;;;5053176;28;20932;-56